CheckWX is a tool to help pilots better visualize weather data.  It is not intended as a substitute for an official pre-flight weather briefing.

08:13:06 UTC

KUGN METAR
Waukegan National Airport
Chicago/Waukegan, Illinois, USA
Current

18 mins ago

KUGN 240755Z AUTO 33004KT 10SM CLR 03/M03 A2990 RMK AO2 SLP131 T00281033
Observed
Feb-24 @ 07:55 UTC
Wind
  • 330° at 4 KTS
Visibility
10 SM
Flight Rules
VFR
Cloud Levels
  • Clear skies
Temperature
C / 37°F
Dewpoint
-3°C / 27°F
Humidity
65%
Altimeter
29.9" Hg
Pressure
1012.52 hPa
Previous

1 hour ago

KUGN 240655Z AUTO 27005KT 10SM CLR 03/M03 A2990 RMK AO2 SLP130 T00331028
Observed
Feb-24 @ 06:55 UTC
Wind
  • 270° at 5 KTS
Visibility
10 SM
Flight Rules
VFR
Cloud Levels
  • Clear skies
Temperature
C / 37°F
Dewpoint
-3°C / 27°F
Humidity
65%
Altimeter
29.9" Hg
Pressure
1012.52 hPa
Previous

2 hours ago

KUGN 240555Z AUTO 27005KT 10SM CLR 04/M02 A2990 RMK AO2 SLP131 T00391022 10067 20033 401221006 55002
Observed
Feb-24 @ 05:55 UTC
Wind
  • 270° at 5 KTS
Visibility
10 SM
Flight Rules
VFR
Cloud Levels
  • Clear skies
Temperature
C / 39°F
Dewpoint
-2°C / 28°F
Humidity
65%
Altimeter
29.9" Hg
Pressure
1012.52 hPa